sensor_id;sensor_type;location;lat;lon;timestamp;P1;P2;P0
56069;PMS5003;41944;52.078;-0.058;2024-03-17T00:02:16;9;8;
56069;PMS5003;41944;52.078;-0.058;2024-03-17T00:04:43;13;11;
56069;PMS5003;41944;52.078;-0.058;2024-03-17T00:07:10;13;10;
56069;PMS5003;41944;52.078;-0.058;2024-03-17T00:09:37;10;8;
56069;PMS5003;41944;52.078;-0.058;2024-03-17T00:12:04;9;9;
56069;PMS5003;41944;52.078;-0.058;2024-03-17T00:14:31;13;11;
56069;PMS5003;41944;52.078;-0.058;2024-03-17T00:16:59;15;12;
56069;PMS5003;41944;52.078;-0.058;2024-03-17T00:19:26;10;10;
56069;PMS5003;41944;52.078;-0.058;2024-03-17T00:21:52;10;10;
56069;PMS5003;41944;52.078;-0.058;2024-03-17T00:24:20;10;8;
56069;PMS5003;41944;52.078;-0.058;2024-03-17T00:26:48;11;11;
56069;PMS5003;41944;52.078;-0.058;2024-03-17T00:29:15;15;10;
56069;PMS5003;41944;52.078;-0.058;2024-03-17T00:31:41;12;12;
56069;PMS5003;41944;52.078;-0.058;2024-03-17T00:34:08;13;12;
56069;PMS5003;41944;52.078;-0.058;2024-03-17T00:36:35;15;13;
56069;PMS5003;41944;52.078;-0.058;2024-03-17T00:39:02;12;11;
56069;PMS5003;41944;52.078;-0.058;2024-03-17T00:41:30;13;10;
56069;PMS5003;41944;52.078;-0.058;2024-03-17T00:43:56;12;11;
56069;PMS5003;41944;52.078;-0.058;2024-03-17T00:46:24;16;14;
56069;PMS5003;41944;52.078;-0.058;2024-03-17T00:48:50;11;11;
56069;PMS5003;41944;52.078;-0.058;2024-03-17T00:51:17;14;14;
56069;PMS5003;41944;52.078;-0.058;2024-03-17T00:53:46;16;14;
56069;PMS5003;41944;52.078;-0.058;2024-03-17T00:56:13;15;11;
56069;PMS5003;41944;52.078;-0.058;2024-03-17T00:58:41;13;12;
56069;PMS5003;41944;52.078;-0.058;2024-03-17T01:01:07;12;12;
56069;PMS5003;41944;52.078;-0.058;2024-03-17T01:03:34;18;13;
56069;PMS5003;41944;52.078;-0.058;2024-03-17T01:06:02;13;13;
56069;PMS5003;41944;52.078;-0.058;2024-03-17T01:08:30;18;14;
56069;PMS5003;41944;52.078;-0.058;2024-03-17T01:10:57;17;15;
56069;PMS5003;41944;52.078;-0.058;2024-03-17T01:13:24;11;11;
56069;PMS5003;41944;52.078;-0.058;2024-03-17T01:15:51;13;11;
56069;PMS5003;41944;52.078;-0.058;2024-03-17T01:18:18;11;11;
56069;PMS5003;41944;52.078;-0.058;2024-03-17T01:20:45;11;11;
56069;PMS5003;41944;52.078;-0.058;2024-03-17T01:23:12;12;10;
56069;PMS5003;41944;52.078;-0.058;2024-03-17T01:25:39;12;12;
56069;PMS5003;41944;52.078;-0.058;2024-03-17T01:28:05;12;11;
56069;PMS5003;41944;52.078;-0.058;2024-03-17T01:30:32;14;13;
56069;PMS5003;41944;52.078;-0.058;2024-03-17T01:33:00;12;12;
56069;PMS5003;41944;52.078;-0.058;2024-03-17T01:35:27;13;11;
56069;PMS5003;41944;52.078;-0.058;2024-03-17T01:37:54;11;11;
56069;PMS5003;41944;52.078;-0.058;2024-03-17T01:40:22;11;11;
56069;PMS5003;41944;52.078;-0.058;2024-03-17T01:42:49;11;9;
56069;PMS5003;41944;52.078;-0.058;2024-03-17T01:45:18;16;12;
56069;PMS5003;41944;52.078;-0.058;2024-03-17T01:47:52;10;10;
56069;PMS5003;41944;52.078;-0.058;2024-03-17T01:50:20;12;12;
56069;PMS5003;41944;52.078;-0.058;2024-03-17T01:52:47;13;12;
56069;PMS5003;41944;52.078;-0.058;2024-03-17T01:55:14;14;13;
56069;PMS5003;41944;52.078;-0.058;2024-03-17T01:57:41;15;11;
56069;PMS5003;41944;52.078;-0.058;2024-03-17T02:00:08;13;10;
56069;PMS5003;41944;52.078;-0.058;2024-03-17T02:02:35;14;12;
56069;PMS5003;41944;52.078;-0.058;2024-03-17T02:05:02;14;13;
56069;PMS5003;41944;52.078;-0.058;2024-03-17T02:07:29;13;12;
56069;PMS5003;41944;52.078;-0.058;2024-03-17T02:09:56;16;13;
56069;PMS5003;41944;52.078;-0.058;2024-03-17T02:12:23;15;14;
56069;PMS5003;41944;52.078;-0.058;2024-03-17T02:14:51;14;13;
56069;PMS5003;41944;52.078;-0.058;2024-03-17T02:17:18;12;10;
56069;PMS5003;41944;52.078;-0.058;2024-03-17T02:19:44;15;13;
56069;PMS5003;41944;52.078;-0.058;2024-03-17T02:22:13;12;11;
56069;PMS5003;41944;52.078;-0.058;2024-03-17T02:24:40;15;14;
56069;PMS5003;41944;52.078;-0.058;2024-03-17T02:27:07;14;12;
56069;PMS5003;41944;52.078;-0.058;2024-03-17T02:29:35;16;14;
56069;PMS5003;41944;52.078;-0.058;2024-03-17T02:32:02;9;8;
56069;PMS5003;41944;52.078;-0.058;2024-03-17T02:34:28;14;13;
56069;PMS5003;41944;52.078;-0.058;2024-03-17T02:36:55;13;11;
56069;PMS5003;41944;52.078;-0.058;2024-03-17T02:39:22;15;13;
56069;PMS5003;41944;52.078;-0.058;2024-03-17T02:41:50;15;14;
56069;PMS5003;41944;52.078;-0.058;2024-03-17T02:44:17;15;12;
56069;PMS5003;41944;52.078;-0.058;2024-03-17T02:46:43;13;13;
56069;PMS5003;41944;52.078;-0.058;2024-03-17T02:49:10;19;16;
56069;PMS5003;41944;52.078;-0.058;2024-03-17T02:51:37;14;13;
56069;PMS5003;41944;52.078;-0.058;2024-03-17T02:54:04;15;14;
56069;PMS5003;41944;52.078;-0.058;2024-03-17T02:56:31;16;12;
56069;PMS5003;41944;52.078;-0.058;2024-03-17T02:58:57;19;16;
56069;PMS5003;41944;52.078;-0.058;2024-03-17T03:01:24;14;14;
56069;PMS5003;41944;52.078;-0.058;2024-03-17T03:03:50;13;13;
56069;PMS5003;41944;52.078;-0.058;2024-03-17T03:06:17;15;15;
56069;PMS5003;41944;52.078;-0.058;2024-03-17T03:08:44;15;14;
56069;PMS5003;41944;52.078;-0.058;2024-03-17T03:11:13;18;16;
56069;PMS5003;41944;52.078;-0.058;2024-03-17T03:13:41;18;14;
56069;PMS5003;41944;52.078;-0.058;2024-03-17T03:16:10;14;13;
56069;PMS5003;41944;52.078;-0.058;2024-03-17T03:18:38;17;17;
56069;PMS5003;41944;52.078;-0.058;2024-03-17T03:21:05;19;17;
56069;PMS5003;41944;52.078;-0.058;2024-03-17T03:23:32;18;18;
56069;PMS5003;41944;52.078;-0.058;2024-03-17T03:25:59;19;17;
56069;PMS5003;41944;52.078;-0.058;2024-03-17T03:28:27;17;17;
56069;PMS5003;41944;52.078;-0.058;2024-03-17T03:30:54;23;20;
56069;PMS5003;41944;52.078;-0.058;2024-03-17T03:33:21;20;20;
56069;PMS5003;41944;52.078;-0.058;2024-03-17T03:35:48;22;19;
56069;PMS5003;41944;52.078;-0.058;2024-03-17T03:38:15;24;23;
56069;PMS5003;41944;52.078;-0.058;2024-03-17T03:40:43;22;21;
56069;PMS5003;41944;52.078;-0.058;2024-03-17T03:43:10;21;19;
56069;PMS5003;41944;52.078;-0.058;2024-03-17T03:45:38;20;18;
56069;PMS5003;41944;52.078;-0.058;2024-03-17T03:48:06;27;20;
56069;PMS5003;41944;52.078;-0.058;2024-03-17T03:50:34;20;20;
56069;PMS5003;41944;52.078;-0.058;2024-03-17T03:53:01;22;19;
56069;PMS5003;41944;52.078;-0.058;2024-03-17T03:55:28;18;14;
56069;PMS5003;41944;52.078;-0.058;2024-03-17T03:57:55;18;17;
56069;PMS5003;41944;52.078;-0.058;2024-03-17T04:00:22;18;16;
56069;PMS5003;41944;52.078;-0.058;2024-03-17T04:02:49;17;17;
56069;PMS5003;41944;52.078;-0.058;2024-03-17T04:05:18;23;18;
56069;PMS5003;41944;52.078;-0.058;2024-03-17T04:07:46;21;19;
56069;PMS5003;41944;52.078;-0.058;2024-03-17T04:10:14;19;15;
56069;PMS5003;41944;52.078;-0.058;2024-03-17T04:12:42;20;20;
56069;PMS5003;41944;52.078;-0.058;2024-03-17T04:15:09;22;20;
56069;PMS5003;41944;52.078;-0.058;2024-03-17T04:17:36;24;22;
56069;PMS5003;41944;52.078;-0.058;2024-03-17T04:20:04;23;17;
56069;PMS5003;41944;52.078;-0.058;2024-03-17T04:22:32;23;21;
56069;PMS5003;41944;52.078;-0.058;2024-03-17T04:24:59;21;21;
56069;PMS5003;41944;52.078;-0.058;2024-03-17T04:27:26;25;20;
56069;PMS5003;41944;52.078;-0.058;2024-03-17T04:29:54;20;20;
56069;PMS5003;41944;52.078;-0.058;2024-03-17T04:32:24;21;20;
56069;PMS5003;41944;52.078;-0.058;2024-03-17T04:34:51;22;19;
56069;PMS5003;41944;52.078;-0.058;2024-03-17T04:37:19;19;16;
56069;PMS5003;41944;52.078;-0.058;2024-03-17T04:39:47;22;20;
56069;PMS5003;41944;52.078;-0.058;2024-03-17T04:42:16;22;20;
56069;PMS5003;41944;52.078;-0.058;2024-03-17T04:44:44;17;17;
56069;PMS5003;41944;52.078;-0.058;2024-03-17T04:47:11;17;16;
56069;PMS5003;41944;52.078;-0.058;2024-03-17T04:49:39;20;17;
56069;PMS5003;41944;52.078;-0.058;2024-03-17T04:52:08;20;16;
56069;PMS5003;41944;52.078;-0.058;2024-03-17T04:54:36;20;15;
56069;PMS5003;41944;52.078;-0.058;2024-03-17T04:57:03;16;16;
56069;PMS5003;41944;52.078;-0.058;2024-03-17T04:59:33;14;14;
56069;PMS5003;41944;52.078;-0.058;2024-03-17T05:02:01;16;15;
56069;PMS5003;41944;52.078;-0.058;2024-03-17T05:04:29;13;13;
56069;PMS5003;41944;52.078;-0.058;2024-03-17T05:06:56;15;15;
56069;PMS5003;41944;52.078;-0.058;2024-03-17T05:09:23;18;18;
56069;PMS5003;41944;52.078;-0.058;2024-03-17T05:11:52;17;15;
56069;PMS5003;41944;52.078;-0.058;2024-03-17T05:14:20;17;15;
56069;PMS5003;41944;52.078;-0.058;2024-03-17T05:16:48;17;16;
56069;PMS5003;41944;52.078;-0.058;2024-03-17T05:19:15;18;17;
56069;PMS5003;41944;52.078;-0.058;2024-03-17T05:21:42;18;17;
56069;PMS5003;41944;52.078;-0.058;2024-03-17T05:24:10;15;14;
56069;PMS5003;41944;52.078;-0.058;2024-03-17T05:26:37;15;14;
56069;PMS5003;41944;52.078;-0.058;2024-03-17T05:29:04;17;17;
56069;PMS5003;41944;52.078;-0.058;2024-03-17T05:31:32;15;14;
56069;PMS5003;41944;52.078;-0.058;2024-03-17T05:33:59;16;16;
56069;PMS5003;41944;52.078;-0.058;2024-03-17T05:36:27;15;14;
56069;PMS5003;41944;52.078;-0.058;2024-03-17T05:38:53;13;13;
56069;PMS5003;41944;52.078;-0.058;2024-03-17T05:41:20;16;16;
56069;PMS5003;41944;52.078;-0.058;2024-03-17T05:43:48;14;12;
56069;PMS5003;41944;52.078;-0.058;2024-03-17T05:46:15;17;15;
56069;PMS5003;41944;52.078;-0.058;2024-03-17T05:48:41;11;11;
56069;PMS5003;41944;52.078;-0.058;2024-03-17T05:51:09;14;12;
56069;PMS5003;41944;52.078;-0.058;2024-03-17T05:53:37;14;14;
56069;PMS5003;41944;52.078;-0.058;2024-03-17T05:56:05;18;16;
56069;PMS5003;41944;52.078;-0.058;2024-03-17T05:58:33;18;15;
56069;PMS5003;41944;52.078;-0.058;2024-03-17T06:01:01;17;17;
56069;PMS5003;41944;52.078;-0.058;2024-03-17T06:03:28;17;17;
56069;PMS5003;41944;52.078;-0.058;2024-03-17T06:05:58;17;17;
56069;PMS5003;41944;52.078;-0.058;2024-03-17T06:08:25;22;17;
56069;PMS5003;41944;52.078;-0.058;2024-03-17T06:10:52;18;18;
56069;PMS5003;41944;52.078;-0.058;2024-03-17T06:13:19;24;20;
56069;PMS5003;41944;52.078;-0.058;2024-03-17T06:15:46;22;20;
56069;PMS5003;41944;52.078;-0.058;2024-03-17T06:18:14;22;22;
56069;PMS5003;41944;52.078;-0.058;2024-03-17T06:20:41;21;19;
56069;PMS5003;41944;52.078;-0.058;2024-03-17T06:23:10;26;24;
56069;PMS5003;41944;52.078;-0.058;2024-03-17T06:25:38;21;19;
56069;PMS5003;41944;52.078;-0.058;2024-03-17T06:28:06;22;17;
56069;PMS5003;41944;52.078;-0.058;2024-03-17T06:30:33;23;19;
56069;PMS5003;41944;52.078;-0.058;2024-03-17T06:33:00;19;18;
56069;PMS5003;41944;52.078;-0.058;2024-03-17T06:35:27;23;20;
56069;PMS5003;41944;52.078;-0.058;2024-03-17T06:37:55;21;18;
56069;PMS5003;41944;52.078;-0.058;2024-03-17T06:40:25;25;20;
56069;PMS5003;41944;52.078;-0.058;2024-03-17T06:42:53;21;19;
56069;PMS5003;41944;52.078;-0.058;2024-03-17T06:45:20;19;18;
56069;PMS5003;41944;52.078;-0.058;2024-03-17T06:47:47;21;19;
56069;PMS5003;41944;52.078;-0.058;2024-03-17T06:50:14;19;19;
56069;PMS5003;41944;52.078;-0.058;2024-03-17T06:52:42;26;19;
56069;PMS5003;41944;52.078;-0.058;2024-03-17T06:55:09;18;17;
56069;PMS5003;41944;52.078;-0.058;2024-03-17T06:57:36;24;19;
56069;PMS5003;41944;52.078;-0.058;2024-03-17T07:00:03;20;18;
56069;PMS5003;41944;52.078;-0.058;2024-03-17T07:02:31;26;23;
56069;PMS5003;41944;52.078;-0.058;2024-03-17T07:04:58;28;22;
56069;PMS5003;41944;52.078;-0.058;2024-03-17T07:07:26;25;24;
56069;PMS5003;41944;52.078;-0.058;2024-03-17T07:09:53;25;24;
56069;PMS5003;41944;52.078;-0.058;2024-03-17T07:12:21;25;20;
56069;PMS5003;41944;52.078;-0.058;2024-03-17T07:14:49;25;19;
56069;PMS5003;41944;52.078;-0.058;2024-03-17T07:17:16;24;22;
56069;PMS5003;41944;52.078;-0.058;2024-03-17T07:19:43;19;18;
56069;PMS5003;41944;52.078;-0.058;2024-03-17T07:22:11;22;19;
56069;PMS5003;41944;52.078;-0.058;2024-03-17T07:24:38;25;21;
56069;PMS5003;41944;52.078;-0.058;2024-03-17T07:27:05;21;20;
56069;PMS5003;41944;52.078;-0.058;2024-03-17T07:29:32;27;24;
56069;PMS5003;41944;52.078;-0.058;2024-03-17T07:31:59;26;23;
56069;PMS5003;41944;52.078;-0.058;2024-03-17T07:34:26;19;15;
56069;PMS5003;41944;52.078;-0.058;2024-03-17T07:36:56;21;20;
56069;PMS5003;41944;52.078;-0.058;2024-03-17T07:39:23;23;22;
56069;PMS5003;41944;52.078;-0.058;2024-03-17T07:41:50;20;17;
56069;PMS5003;41944;52.078;-0.058;2024-03-17T07:44:17;21;18;
56069;PMS5003;41944;52.078;-0.058;2024-03-17T07:46:44;18;17;
56069;PMS5003;41944;52.078;-0.058;2024-03-17T07:49:10;22;17;
56069;PMS5003;41944;52.078;-0.058;2024-03-17T07:51:37;19;18;
56069;PMS5003;41944;52.078;-0.058;2024-03-17T07:54:05;16;15;
56069;PMS5003;41944;52.078;-0.058;2024-03-17T07:56:31;20;17;
56069;PMS5003;41944;52.078;-0.058;2024-03-17T07:58:58;17;14;
56069;PMS5003;41944;52.078;-0.058;2024-03-17T08:01:25;23;22;
56069;PMS5003;41944;52.078;-0.058;2024-03-17T08:03:52;19;15;
56069;PMS5003;41944;52.078;-0.058;2024-03-17T08:06:20;15;15;
56069;PMS5003;41944;52.078;-0.058;2024-03-17T08:08:47;15;13;
56069;PMS5003;41944;52.078;-0.058;2024-03-17T08:11:14;17;15;
56069;PMS5003;41944;52.078;-0.058;2024-03-17T08:13:41;17;15;
56069;PMS5003;41944;52.078;-0.058;2024-03-17T08:16:08;20;15;
56069;PMS5003;41944;52.078;-0.058;2024-03-17T08:18:35;16;13;
56069;PMS5003;41944;52.078;-0.058;2024-03-17T08:21:02;15;13;
56069;PMS5003;41944;52.078;-0.058;2024-03-17T08:23:30;19;16;
56069;PMS5003;41944;52.078;-0.058;2024-03-17T08:25:59;16;15;
56069;PMS5003;41944;52.078;-0.058;2024-03-17T08:28:27;16;14;
56069;PMS5003;41944;52.078;-0.058;2024-03-17T08:30:55;17;15;
56069;PMS5003;41944;52.078;-0.058;2024-03-17T08:33:23;16;14;
56069;PMS5003;41944;52.078;-0.058;2024-03-17T08:35:53;20;13;
56069;PMS5003;41944;52.078;-0.058;2024-03-17T08:38:20;19;15;
56069;PMS5003;41944;52.078;-0.058;2024-03-17T08:40:48;17;15;
56069;PMS5003;41944;52.078;-0.058;2024-03-17T08:43:15;19;13;
56069;PMS5003;41944;52.078;-0.058;2024-03-17T08:45:41;12;12;
56069;PMS5003;41944;52.078;-0.058;2024-03-17T08:48:08;15;14;
56069;PMS5003;41944;52.078;-0.058;2024-03-17T08:50:36;17;14;
56069;PMS5003;41944;52.078;-0.058;2024-03-17T08:53:02;18;14;
56069;PMS5003;41944;52.078;-0.058;2024-03-17T08:55:30;18;14;
56069;PMS5003;41944;52.078;-0.058;2024-03-17T08:57:57;16;14;
56069;PMS5003;41944;52.078;-0.058;2024-03-17T09:00:24;39;36;
56069;PMS5003;41944;52.078;-0.058;2024-03-17T09:02:51;19;16;
56069;PMS5003;41944;52.078;-0.058;2024-03-17T09:05:18;15;13;
56069;PMS5003;41944;52.078;-0.058;2024-03-17T09:07:45;13;12;
56069;PMS5003;41944;52.078;-0.058;2024-03-17T09:10:12;37;36;
56069;PMS5003;41944;52.078;-0.058;2024-03-17T09:12:39;14;14;
56069;PMS5003;41944;52.078;-0.058;2024-03-17T09:15:06;14;12;
56069;PMS5003;41944;52.078;-0.058;2024-03-17T09:17:34;15;12;
56069;PMS5003;41944;52.078;-0.058;2024-03-17T09:20:01;17;14;
56069;PMS5003;41944;52.078;-0.058;2024-03-17T09:22:29;13;11;
56069;PMS5003;41944;52.078;-0.058;2024-03-17T09:24:56;28;21;
56069;PMS5003;41944;52.078;-0.058;2024-03-17T09:27:22;21;15;
56069;PMS5003;41944;52.078;-0.058;2024-03-17T09:29:49;19;16;
56069;PMS5003;41944;52.078;-0.058;2024-03-17T09:32:17;24;19;
56069;PMS5003;41944;52.078;-0.058;2024-03-17T09:34:46;48;39;
56069;PMS5003;41944;52.078;-0.058;2024-03-17T09:37:13;12;11;
56069;PMS5003;41944;52.078;-0.058;2024-03-17T09:39:41;12;11;
56069;PMS5003;41944;52.078;-0.058;2024-03-17T09:42:08;22;13;
56069;PMS5003;41944;52.078;-0.058;2024-03-17T09:44:43;21;16;
56069;PMS5003;41944;52.078;-0.058;2024-03-17T09:47:15;28;22;
56069;PMS5003;41944;52.078;-0.058;2024-03-17T09:49:45;37;25;
56069;PMS5003;41944;52.078;-0.058;2024-03-17T09:52:15;50;40;
56069;PMS5003;41944;52.078;-0.058;2024-03-17T09:54:46;23;16;
56069;PMS5003;41944;52.078;-0.058;2024-03-17T09:57:19;70;50;
56069;PMS5003;41944;52.078;-0.058;2024-03-17T09:59:51;14;13;
56069;PMS5003;41944;52.078;-0.058;2024-03-17T10:02:18;23;18;
56069;PMS5003;41944;52.078;-0.058;2024-03-17T10:04:44;32;28;
56069;PMS5003;41944;52.078;-0.058;2024-03-17T10:07:11;27;22;
56069;PMS5003;41944;52.078;-0.058;2024-03-17T10:09:38;27;21;
56069;PMS5003;41944;52.078;-0.058;2024-03-17T10:12:05;34;30;
56069;PMS5003;41944;52.078;-0.058;2024-03-17T10:15:00;34;29;
56069;PMS5003;41944;52.078;-0.058;2024-03-17T10:17:31;18;16;
56069;PMS5003;41944;52.078;-0.058;2024-03-17T10:20:15;20;16;
56069;PMS5003;41944;52.078;-0.058;2024-03-17T10:22:59;15;11;
56069;PMS5003;41944;52.078;-0.058;2024-03-17T10:25:28;19;14;
56069;PMS5003;41944;52.078;-0.058;2024-03-17T10:27:56;12;10;
56069;PMS5003;41944;52.078;-0.058;2024-03-17T10:30:23;13;11;
56069;PMS5003;41944;52.078;-0.058;2024-03-17T10:32:52;15;10;
56069;PMS5003;41944;52.078;-0.058;2024-03-17T10:35:29;11;9;
56069;PMS5003;41944;52.078;-0.058;2024-03-17T10:37:57;14;11;
56069;PMS5003;41944;52.078;-0.058;2024-03-17T10:40:26;12;10;
56069;PMS5003;41944;52.078;-0.058;2024-03-17T10:42:54;7;7;
56069;PMS5003;41944;52.078;-0.058;2024-03-17T10:45:22;14;10;
56069;PMS5003;41944;52.078;-0.058;2024-03-17T10:47:51;8;7;
56069;PMS5003;41944;52.078;-0.058;2024-03-17T10:50:19;8;8;
56069;PMS5003;41944;52.078;-0.058;2024-03-17T10:52:48;5;5;
56069;PMS5003;41944;52.078;-0.058;2024-03-17T10:55:20;5;5;
56069;PMS5003;41944;52.078;-0.058;2024-03-17T10:57:49;4;4;
56069;PMS5003;41944;52.078;-0.058;2024-03-17T11:00:18;5;4;
56069;PMS5003;41944;52.078;-0.058;2024-03-17T11:02:47;3;3;
56069;PMS5003;41944;52.078;-0.058;2024-03-17T11:05:16;4;4;
56069;PMS5003;41944;52.078;-0.058;2024-03-17T11:07:46;4;2;
56069;PMS5003;41944;52.078;-0.058;2024-03-17T11:10:15;6;5;
56069;PMS5003;41944;52.078;-0.058;2024-03-17T11:12:46;4;4;
56069;PMS5003;41944;52.078;-0.058;2024-03-17T11:15:48;4;4;
56069;PMS5003;41944;52.078;-0.058;2024-03-17T11:18:33;4;3;
56069;PMS5003;41944;52.078;-0.058;2024-03-17T11:21:02;3;3;
56069;PMS5003;41944;52.078;-0.058;2024-03-17T11:23:30;2;2;
56069;PMS5003;41944;52.078;-0.058;2024-03-17T11:25:58;4;4;
56069;PMS5003;41944;52.078;-0.058;2024-03-17T11:28:58;2;2;
56069;PMS5003;41944;52.078;-0.058;2024-03-17T11:31:33;3;3;
56069;PMS5003;41944;52.078;-0.058;2024-03-17T11:34:05;4;2;
56069;PMS5003;41944;52.078;-0.058;2024-03-17T11:36:33;3;3;
56069;PMS5003;41944;52.078;-0.058;2024-03-17T11:39:03;2;1;
56069;PMS5003;41944;52.078;-0.058;2024-03-17T11:41:35;5;3;
56069;PMS5003;41944;52.078;-0.058;2024-03-17T11:44:36;2;2;
56069;PMS5003;41944;52.078;-0.058;2024-03-17T11:47:03;1;1;
56069;PMS5003;41944;52.078;-0.058;2024-03-17T11:49:32;2;2;
56069;PMS5003;41944;52.078;-0.058;2024-03-17T11:52:00;0;0;
56069;PMS5003;41944;52.078;-0.058;2024-03-17T11:54:29;1;1;
56069;PMS5003;41944;52.078;-0.058;2024-03-17T11:57:00;2;2;
56069;PMS5003;41944;52.078;-0.058;2024-03-17T11:59:29;1;1;
56069;PMS5003;41944;52.078;-0.058;2024-03-17T12:01:56;1;1;
56069;PMS5003;41944;52.078;-0.058;2024-03-17T12:04:24;1;1;
56069;PMS5003;41944;52.078;-0.058;2024-03-17T12:06:52;2;2;
56069;PMS5003;41944;52.078;-0.058;2024-03-17T12:09:21;2;2;
56069;PMS5003;41944;52.078;-0.058;2024-03-17T12:11:50;3;2;
56069;PMS5003;41944;52.078;-0.058;2024-03-17T12:14:24;2;2;
56069;PMS5003;41944;52.078;-0.058;2024-03-17T12:16:52;2;2;
56069;PMS5003;41944;52.078;-0.058;2024-03-17T12:19:20;1;1;
56069;PMS5003;41944;52.078;-0.058;2024-03-17T12:21:49;3;3;
56069;PMS5003;41944;52.078;-0.058;2024-03-17T12:24:18;1;1;
56069;PMS5003;41944;52.078;-0.058;2024-03-17T12:26:46;1;1;
56069;PMS5003;41944;52.078;-0.058;2024-03-17T12:29:22;2;2;
56069;PMS5003;41944;52.078;-0.058;2024-03-17T12:31:50;1;1;
56069;PMS5003;41944;52.078;-0.058;2024-03-17T12:34:18;0;0;
56069;PMS5003;41944;52.078;-0.058;2024-03-17T12:36:45;2;2;
56069;PMS5003;41944;52.078;-0.058;2024-03-17T12:39:15;0;0;
56069;PMS5003;41944;52.078;-0.058;2024-03-17T12:41:45;1;1;
56069;PMS5003;41944;52.078;-0.058;2024-03-17T12:44:26;3;3;
56069;PMS5003;41944;52.078;-0.058;2024-03-17T12:46:55;1;1;
56069;PMS5003;41944;52.078;-0.058;2024-03-17T12:49:22;2;2;
56069;PMS5003;41944;52.078;-0.058;2024-03-17T12:51:49;1;1;
56069;PMS5003;41944;52.078;-0.058;2024-03-17T12:54:17;2;2;
56069;PMS5003;41944;52.078;-0.058;2024-03-17T12:56:47;1;1;
56069;PMS5003;41944;52.078;-0.058;2024-03-17T12:59:13;1;1;
56069;PMS5003;41944;52.078;-0.058;2024-03-17T13:01:40;2;2;
56069;PMS5003;41944;52.078;-0.058;2024-03-17T13:04:07;2;2;
56069;PMS5003;41944;52.078;-0.058;2024-03-17T13:06:34;3;2;
56069;PMS5003;41944;52.078;-0.058;2024-03-17T13:09:01;2;2;
56069;PMS5003;41944;52.078;-0.058;2024-03-17T13:11:28;2;2;
56069;PMS5003;41944;52.078;-0.058;2024-03-17T13:13:54;3;3;
56069;PMS5003;41944;52.078;-0.058;2024-03-17T13:16:22;3;3;
56069;PMS5003;41944;52.078;-0.058;2024-03-17T13:18:49;3;3;
56069;PMS5003;41944;52.078;-0.058;2024-03-17T13:21:16;1;1;
56069;PMS5003;41944;52.078;-0.058;2024-03-17T13:23:43;2;2;
56069;PMS5003;41944;52.078;-0.058;2024-03-17T13:26:10;4;3;
56069;PMS5003;41944;52.078;-0.058;2024-03-17T13:28:36;3;3;
56069;PMS5003;41944;52.078;-0.058;2024-03-17T13:31:03;3;3;
56069;PMS5003;41944;52.078;-0.058;2024-03-17T13:33:30;3;3;
56069;PMS5003;41944;52.078;-0.058;2024-03-17T13:35:58;3;3;
56069;PMS5003;41944;52.078;-0.058;2024-03-17T13:38:25;2;2;
56069;PMS5003;41944;52.078;-0.058;2024-03-17T13:40:51;3;2;
56069;PMS5003;41944;52.078;-0.058;2024-03-17T13:43:18;0;0;
56069;PMS5003;41944;52.078;-0.058;2024-03-17T13:45:45;2;2;
56069;PMS5003;41944;52.078;-0.058;2024-03-17T13:48:13;2;2;
56069;PMS5003;41944;52.078;-0.058;2024-03-17T13:50:40;2;2;
56069;PMS5003;41944;52.078;-0.058;2024-03-17T13:53:07;3;3;
56069;PMS5003;41944;52.078;-0.058;2024-03-17T13:55:35;2;2;
56069;PMS5003;41944;52.078;-0.058;2024-03-17T13:58:03;0;0;
56069;PMS5003;41944;52.078;-0.058;2024-03-17T14:00:31;3;1;
56069;PMS5003;41944;52.078;-0.058;2024-03-17T14:02:58;0;0;
56069;PMS5003;41944;52.078;-0.058;2024-03-17T14:05:25;1;1;
56069;PMS5003;41944;52.078;-0.058;2024-03-17T14:07:53;3;2;
56069;PMS5003;41944;52.078;-0.058;2024-03-17T14:10:21;1;1;
56069;PMS5003;41944;52.078;-0.058;2024-03-17T14:12:49;5;3;
56069;PMS5003;41944;52.078;-0.058;2024-03-17T14:15:16;2;2;
56069;PMS5003;41944;52.078;-0.058;2024-03-17T14:17:44;2;2;
56069;PMS5003;41944;52.078;-0.058;2024-03-17T14:20:13;2;2;
56069;PMS5003;41944;52.078;-0.058;2024-03-17T14:22:41;2;2;
56069;PMS5003;41944;52.078;-0.058;2024-03-17T14:25:10;3;2;
56069;PMS5003;41944;52.078;-0.058;2024-03-17T14:27:42;3;2;
56069;PMS5003;41944;52.078;-0.058;2024-03-17T14:30:09;0;0;
56069;PMS5003;41944;52.078;-0.058;2024-03-17T14:32:38;2;1;
56069;PMS5003;41944;52.078;-0.058;2024-03-17T14:35:05;3;3;
56069;PMS5003;41944;52.078;-0.058;2024-03-17T14:37:32;2;2;
56069;PMS5003;41944;52.078;-0.058;2024-03-17T14:39:59;3;3;
56069;PMS5003;41944;52.078;-0.058;2024-03-17T14:42:26;2;2;
56069;PMS5003;41944;52.078;-0.058;2024-03-17T14:44:53;2;2;
56069;PMS5003;41944;52.078;-0.058;2024-03-17T14:47:19;1;1;
56069;PMS5003;41944;52.078;-0.058;2024-03-17T14:49:47;3;2;
56069;PMS5003;41944;52.078;-0.058;2024-03-17T14:52:14;6;5;
56069;PMS5003;41944;52.078;-0.058;2024-03-17T14:54:41;1;1;
56069;PMS5003;41944;52.078;-0.058;2024-03-17T14:57:08;3;1;
56069;PMS5003;41944;52.078;-0.058;2024-03-17T14:59:35;3;3;
56069;PMS5003;41944;52.078;-0.058;2024-03-17T15:02:02;3;2;
56069;PMS5003;41944;52.078;-0.058;2024-03-17T15:04:31;3;3;
56069;PMS5003;41944;52.078;-0.058;2024-03-17T15:06:58;5;3;
56069;PMS5003;41944;52.078;-0.058;2024-03-17T15:09:25;2;2;
56069;PMS5003;41944;52.078;-0.058;2024-03-17T15:11:52;1;1;
56069;PMS5003;41944;52.078;-0.058;2024-03-17T15:14:19;2;2;
56069;PMS5003;41944;52.078;-0.058;2024-03-17T15:16:46;3;3;
56069;PMS5003;41944;52.078;-0.058;2024-03-17T15:19:13;3;2;
56069;PMS5003;41944;52.078;-0.058;2024-03-17T15:21:40;4;1;
56069;PMS5003;41944;52.078;-0.058;2024-03-17T15:24:06;3;3;
56069;PMS5003;41944;52.078;-0.058;2024-03-17T15:26:33;2;2;
56069;PMS5003;41944;52.078;-0.058;2024-03-17T15:29:00;3;3;
56069;PMS5003;41944;52.078;-0.058;2024-03-17T15:31:27;5;2;
56069;PMS5003;41944;52.078;-0.058;2024-03-17T15:33:54;2;2;
56069;PMS5003;41944;52.078;-0.058;2024-03-17T15:36:21;5;2;
56069;PMS5003;41944;52.078;-0.058;2024-03-17T15:38:48;5;4;
56069;PMS5003;41944;52.078;-0.058;2024-03-17T15:41:15;2;2;
56069;PMS5003;41944;52.078;-0.058;2024-03-17T15:43:43;1;1;
56069;PMS5003;41944;52.078;-0.058;2024-03-17T15:46:11;2;2;
56069;PMS5003;41944;52.078;-0.058;2024-03-17T15:48:41;2;1;
56069;PMS5003;41944;52.078;-0.058;2024-03-17T15:51:07;3;3;
56069;PMS5003;41944;52.078;-0.058;2024-03-17T15:53:34;3;3;
56069;PMS5003;41944;52.078;-0.058;2024-03-17T15:56:02;1;1;
56069;PMS5003;41944;52.078;-0.058;2024-03-17T15:58:30;2;2;
56069;PMS5003;41944;52.078;-0.058;2024-03-17T16:00:58;1;1;
56069;PMS5003;41944;52.078;-0.058;2024-03-17T16:03:28;4;2;
56069;PMS5003;41944;52.078;-0.058;2024-03-17T16:05:57;3;1;
56069;PMS5003;41944;52.078;-0.058;2024-03-17T16:08:28;2;2;
56069;PMS5003;41944;52.078;-0.058;2024-03-17T16:10:56;2;2;
56069;PMS5003;41944;52.078;-0.058;2024-03-17T16:13:26;1;1;
56069;PMS5003;41944;52.078;-0.058;2024-03-17T16:15:54;2;2;
56069;PMS5003;41944;52.078;-0.058;2024-03-17T16:18:21;1;1;
56069;PMS5003;41944;52.078;-0.058;2024-03-17T16:20:56;2;2;